Time;durP1;ratioP1;P1;durP2;ratioP2;P2;SDS_P1;SDS_P2;PMS_P1;PMS_P2;Temp;Humidity;BMP_temperature;BMP_pressure;BME280_temperature;BME280_humidity;BME280_pressure;Samples;Min_cycle;Max_cycle;Signal;HPM_P1;HPM_P2
2023/09/01 00:01:39;;;;;;;6.65;3.95;;;11.70;99.90;;;;;;7369108;19;20032;-62
2023/09/01 00:04:24;;;;;;;6.25;3.67;;;11.60;99.90;;;;;;7373229;19;20086;-62
2023/09/01 00:06:50;;;;;;;5.68;3.45;;;11.60;99.90;;;;;;7365801;19;20038;-62
2023/09/01 00:09:16;;;;;;;8.07;4.57;;;11.60;99.90;;;;;;7369709;19;20208;-61
2023/09/01 00:11:43;;;;;;;6.55;3.90;;;11.50;99.90;;;;;;7365434;19;20109;-61
2023/09/01 00:14:10;;;;;;;6.70;4.25;;;11.50;99.90;;;;;;7376495;19;20022;-61
2023/09/01 00:16:36;;;;;;;7.53;4.80;;;11.60;99.90;;;;;;7373658;19;20015;-62
2023/09/01 00:19:02;;;;;;;8.25;4.80;;;11.60;99.90;;;;;;7369018;19;20052;-61
2023/09/01 00:21:28;;;;;;;5.55;3.90;;;11.60;99.90;;;;;;7373531;19;20011;-62
2023/09/01 00:23:55;;;;;;;7.60;5.10;;;11.60;99.90;;;;;;7373849;19;20497;-62
2023/09/01 00:26:21;;;;;;;7.60;4.75;;;11.60;99.90;;;;;;7372053;19;20080;-62
2023/09/01 00:28:48;;;;;;;8.77;5.03;;;11.70;99.90;;;;;;7371016;19;20014;-63
2023/09/01 00:31:17;;;;;;;9.15;5.32;;;11.70;99.90;;;;;;7374910;19;20026;-62
2023/09/01 00:33:43;;;;;;;6.80;4.80;;;11.70;99.90;;;;;;7374097;19;20085;-62
2023/09/01 00:36:30;;;;;;;8.20;4.72;;;11.70;99.90;;;;;;7373687;19;20876;-62
2023/09/01 00:38:56;;;;;;;7.97;5.15;;;11.70;99.90;;;;;;7369849;19;20306;-62
2023/09/01 00:41:23;;;;;;;7.82;5.15;;;11.70;99.90;;;;;;7371998;19;21529;-62
2023/09/01 00:43:49;;;;;;;9.35;4.95;;;11.70;99.90;;;;;;7361594;19;20018;-65
2023/09/01 00:46:16;;;;;;;6.30;4.90;;;11.70;99.90;;;;;;7369454;19;20082;-66
2023/09/01 00:48:43;;;;;;;5.35;4.82;;;11.80;99.90;;;;;;7373386;19;20022;-63
2023/09/01 00:51:32;;;;;;;7.03;4.47;;;11.80;99.90;;;;;;7370325;19;20018;-66
2023/09/01 00:53:58;;;;;;;8.68;4.75;;;11.70;99.90;;;;;;7368336;19;20018;-66
2023/09/01 00:56:25;;;;;;;8.75;4.82;;;11.80;99.90;;;;;;7373147;19;20461;-66
2023/09/01 00:58:52;;;;;;;5.68;4.60;;;11.80;99.90;;;;;;7373201;19;20470;-66
2023/09/01 01:01:18;;;;;;;6.07;4.43;;;11.70;99.90;;;;;;7367832;19;20018;-66
2023/09/01 01:03:49;;;;;;;6.43;4.95;;;11.80;99.90;;;;;;7372589;19;20018;-65
2023/09/01 01:06:27;;;;;;;7.95;4.57;;;11.80;99.90;;;;;;7373248;19;20806;-65
2023/09/01 01:09:10;;;;;;;7.30;4.63;;;11.80;99.90;;;;;;7367818;19;20043;-65
2023/09/01 01:11:46;;;;;;;9.90;4.95;;;11.90;99.90;;;;;;7368875;19;20387;-65
2023/09/01 01:14:26;;;;;;;8.07;5.30;;;11.90;99.90;;;;;;7372082;19;20021;-65
2023/09/01 01:16:53;;;;;;;11.13;5.22;;;11.90;99.90;;;;;;7363258;19;20030;-65
2023/09/01 01:19:48;;;;;;;6.68;5.03;;;11.90;99.90;;;;;;7373513;19;20028;-65
2023/09/01 01:22:14;;;;;;;7.03;5.28;;;11.90;99.90;;;;;;7372606;19;20019;-65
2023/09/01 01:24:41;;;;;;;9.73;5.35;;;11.80;99.90;;;;;;7368349;19;20419;-66
2023/09/01 01:27:10;;;;;;;7.18;5.07;;;11.90;99.90;;;;;;7372078;19;20029;-65
2023/09/01 01:29:36;;;;;;;9.98;4.38;;;11.80;99.90;;;;;;7367469;19;20014;-66
2023/09/01 01:32:23;;;;;;;7.15;4.88;;;11.90;99.90;;;;;;7370919;19;20019;-65
2023/09/01 01:35:19;;;;;;;8.30;4.40;;;11.70;99.90;;;;;;7370682;19;20375;-65
2023/09/01 01:37:55;;;;;;;5.90;4.90;;;11.70;99.90;;;;;;7370898;19;20355;-66
2023/09/01 01:40:27;;;;;;;6.20;4.55;;;11.60;99.90;;;;;;7364336;19;20480;-66
2023/09/01 01:42:56;;;;;;;14.95;4.80;;;11.60;99.90;;;;;;7367198;19;20014;-66
2023/09/01 01:45:24;;;;;;;7.38;5.25;;;11.60;99.90;;;;;;7369167;19;20015;-65
2023/09/01 01:47:51;;;;;;;6.40;4.38;;;11.50;99.90;;;;;;7370272;19;20049;-65
2023/09/01 01:50:18;;;;;;;6.40;4.68;;;11.40;99.90;;;;;;7372566;19;20022;-66
2023/09/01 01:52:44;;;;;;;10.02;5.25;;;11.40;99.90;;;;;;7368469;19;20318;-65
2023/09/01 01:55:10;;;;;;;7.97;4.50;;;11.40;99.90;;;;;;7370314;19;20015;-65
2023/09/01 01:57:36;;;;;;;6.25;4.60;;;11.40;99.90;;;;;;7372180;19;20014;-65
2023/09/01 02:00:04;;;;;;;6.43;5.43;;;11.40;99.90;;;;;;7371107;19;20021;-64
2023/09/01 02:02:39;;;;;;;10.27;5.03;;;11.40;99.90;;;;;;7369168;19;20347;-65
2023/09/01 02:05:06;;;;;;;8.70;5.20;;;11.40;99.90;;;;;;7370815;19;20030;-65
2023/09/01 02:07:34;;;;;;;10.18;6.05;;;11.40;99.90;;;;;;7373622;19;20022;-65
2023/09/01 02:10:01;;;;;;;8.38;5.80;;;11.40;99.90;;;;;;7369500;19;20033;-65
2023/09/01 02:12:28;;;;;;;8.30;6.13;;;11.50;99.90;;;;;;7368916;19;20529;-66
2023/09/01 02:14:55;;;;;;;6.70;5.15;;;11.50;99.90;;;;;;7369380;19;20042;-65
2023/09/01 02:17:21;;;;;;;7.68;5.50;;;11.50;99.90;;;;;;7369919;19;20026;-65
2023/09/01 02:19:48;;;;;;;7.78;5.82;;;11.60;99.90;;;;;;7366268;19;20413;-66
2023/09/01 02:22:14;;;;;;;9.43;5.72;;;11.60;99.90;;;;;;7366530;19;20052;-65
2023/09/01 02:24:41;;;;;;;7.80;5.18;;;11.60;99.90;;;;;;7370131;19;20052;-66
2023/09/01 02:27:10;;;;;;;12.02;6.53;;;11.60;99.90;;;;;;7367576;19;20078;-65
2023/09/01 02:29:36;;;;;;;6.78;5.38;;;11.60;99.90;;;;;;7366602;19;20138;-65
2023/09/01 02:32:02;;;;;;;9.70;5.95;;;11.60;99.90;;;;;;7361210;19;20476;-65
2023/09/01 02:34:29;;;;;;;12.10;5.68;;;11.60;99.90;;;;;;7371296;19;20140;-65
2023/09/01 02:36:55;;;;;;;13.55;5.57;;;11.60;99.90;;;;;;7368714;19;20035;-65
2023/09/01 02:39:22;;;;;;;8.73;5.30;;;11.50;99.90;;;;;;7364698;19;20441;-65
2023/09/01 02:41:48;;;;;;;11.60;5.80;;;11.60;99.90;;;;;;7370333;19;20018;-65
2023/09/01 02:44:34;;;;;;;7.32;5.35;;;11.60;99.90;;;;;;7359531;19;20024;-65
2023/09/01 02:47:20;;;;;;;7.75;5.70;;;11.60;99.90;;;;;;7362285;19;20019;-66
2023/09/01 02:49:46;;;;;;;8.63;5.63;;;11.60;99.90;;;;;;7365426;19;20988;-66
2023/09/01 02:52:13;;;;;;;11.02;6.00;;;11.60;99.90;;;;;;7373272;19;20450;-65
2023/09/01 02:54:39;;;;;;;7.05;5.90;;;11.60;99.90;;;;;;7370070;19;20046;-66
2023/09/01 02:57:05;;;;;;;11.05;6.30;;;11.60;99.90;;;;;;7373316;19;20559;-66
2023/09/01 02:59:31;;;;;;;9.43;6.05;;;11.60;99.90;;;;;;7369380;19;20524;-66
2023/09/01 03:01:57;;;;;;;10.40;5.35;;;11.70;99.90;;;;;;7371923;19;20039;-65
2023/09/01 03:04:24;;;;;;;13.73;6.50;;;11.70;99.90;;;;;;7367788;19;20386;-66
2023/09/01 03:06:51;;;;;;;9.75;6.07;;;11.70;99.90;;;;;;7368528;19;20018;-66
2023/09/01 03:09:17;;;;;;;9.15;6.63;;;11.70;99.90;;;;;;7366839;19;20575;-65
2023/09/01 03:11:43;;;;;;;11.57;5.55;;;11.60;99.90;;;;;;7371599;19;20021;-65
2023/09/01 03:14:12;;;;;;;10.05;6.28;;;11.60;99.90;;;;;;7369508;19;20023;-66
2023/09/01 03:16:39;;;;;;;7.38;5.95;;;11.60;99.90;;;;;;7372352;19;20026;-66
2023/09/01 03:19:05;;;;;;;10.73;6.25;;;11.70;99.90;;;;;;7368619;19;20026;-66
2023/09/01 03:21:32;;;;;;;10.13;6.80;;;11.70;99.90;;;;;;7373437;19;20022;-66
2023/09/01 03:23:58;;;;;;;8.65;6.32;;;11.60;99.90;;;;;;7370618;19;20026;-66
2023/09/01 03:26:25;;;;;;;8.00;6.10;;;11.60;99.90;;;;;;7365871;19;20037;-66
2023/09/01 03:28:52;;;;;;;8.95;6.63;;;11.60;99.90;;;;;;7373355;19;20482;-65
2023/09/01 03:31:18;;;;;;;7.55;6.07;;;11.60;99.90;;;;;;7368951;19;20555;-65
2023/09/01 03:33:44;;;;;;;8.25;5.80;;;11.60;99.90;;;;;;7370911;19;20074;-65
2023/09/01 03:36:13;;;;;;;11.38;6.43;;;11.60;99.90;;;;;;7366819;19;20042;-66
2023/09/01 03:38:40;;;;;;;7.47;6.38;;;11.50;99.90;;;;;;7372951;19;20518;-66
2023/09/01 03:41:08;;;;;;;8.57;6.47;;;11.50;99.90;;;;;;7367008;19;20022;-66
2023/09/01 03:43:35;;;;;;;6.45;5.68;;;11.50;99.90;;;;;;7371094;19;20082;-65
2023/09/01 03:46:02;;;;;;;7.40;5.82;;;11.40;99.90;;;;;;7366642;19;20022;-66
2023/09/01 03:48:28;;;;;;;8.40;6.70;;;11.40;99.90;;;;;;7370692;19;20486;-66
2023/09/01 03:51:06;;;;;;;10.05;7.35;;;11.30;99.90;;;;;;7368769;19;20473;-66
2023/09/01 03:53:32;;;;;;;12.35;6.07;;;11.30;99.90;;;;;;7369093;19;20019;-66
2023/09/01 03:56:11;;;;;;;10.02;7.10;;;11.30;99.90;;;;;;7370006;19;20023;-65
2023/09/01 03:58:38;;;;;;;9.48;7.20;;;11.20;99.90;;;;;;7371415;19;20015;-66
2023/09/01 04:01:08;;;;;;;7.50;6.10;;;11.20;99.90;;;;;;7369306;19;20078;-66
2023/09/01 04:03:42;;;;;;;8.82;7.18;;;11.10;99.90;;;;;;7369550;19;20019;-66
2023/09/01 04:06:09;;;;;;;10.57;6.68;;;11.10;99.90;;;;;;7368118;19;20494;-66
2023/09/01 04:08:36;;;;;;;9.07;7.40;;;11.20;99.90;;;;;;7370571;19;20461;-65
2023/09/01 04:11:03;;;;;;;9.63;7.20;;;11.10;99.90;;;;;;7366285;19;21291;-66
2023/09/01 04:13:33;;;;;;;10.70;7.75;;;11.10;99.90;;;;;;7372632;19;20018;-66
2023/09/01 04:16:00;;;;;;;8.52;7.13;;;11.10;99.90;;;;;;7368474;19;20018;-66
2023/09/01 04:18:27;;;;;;;10.73;6.60;;;11.10;99.90;;;;;;7369386;19;20086;-65
2023/09/01 04:20:55;;;;;;;7.38;6.57;;;11.00;99.90;;;;;;7367871;19;20486;-66
2023/09/01 04:23:21;;;;;;;9.13;7.40;;;11.00;99.90;;;;;;7366287;19;21240;-66
2023/09/01 04:25:49;;;;;;;8.48;6.78;;;11.00;99.90;;;;;;7363650;19;20022;-66
2023/09/01 04:28:19;;;;;;;8.70;6.97;;;11.00;99.90;;;;;;7364359;19;20018;-65
2023/09/01 04:30:47;;;;;;;9.40;7.00;;;11.00;99.90;;;;;;7369425;19;20019;-65
2023/09/01 04:33:14;;;;;;;10.25;7.30;;;11.00;99.90;;;;;;7366449;19;20395;-65
2023/09/01 04:35:41;;;;;;;9.75;7.80;;;10.90;99.90;;;;;;7369287;19;20492;-65
2023/09/01 04:38:08;;;;;;;9.60;7.18;;;10.90;99.90;;;;;;7368090;19;20114;-65
2023/09/01 04:40:35;;;;;;;9.02;7.63;;;10.90;99.90;;;;;;7370197;19;20015;-62
2023/09/01 04:43:21;;;;;;;9.60;7.85;;;10.90;99.90;;;;;;7367954;19;20022;-62
2023/09/01 04:45:47;;;;;;;11.63;7.93;;;10.90;99.90;;;;;;7368431;19;20026;-62
2023/09/01 04:48:14;;;;;;;10.50;7.97;;;10.80;99.90;;;;;;7369532;19;20098;-65
2023/09/01 04:50:40;;;;;;;10.18;7.07;;;10.80;99.90;;;;;;7367904;19;20022;-65
2023/09/01 04:53:07;;;;;;;11.15;8.05;;;10.80;99.90;;;;;;7366035;19;20015;-65
2023/09/01 04:55:33;;;;;;;7.88;6.82;;;10.80;99.90;;;;;;7368981;19;20018;-66
2023/09/01 04:58:00;;;;;;;9.52;7.68;;;10.80;99.90;;;;;;7367545;19;20018;-65
2023/09/01 05:00:26;;;;;;;9.63;7.90;;;10.80;99.90;;;;;;7367782;19;20018;-65
2023/09/01 05:02:52;;;;;;;11.98;8.63;;;10.90;99.90;;;;;;7365673;19;20018;-65
2023/09/01 05:05:18;;;;;;;8.85;7.47;;;10.90;99.90;;;;;;7366292;19;20525;-65
2023/09/01 05:07:45;;;;;;;9.23;8.07;;;10.80;99.90;;;;;;7364495;19;20565;-65
2023/09/01 05:10:13;;;;;;;9.55;8.65;;;10.90;99.90;;;;;;7366592;19;20450;-66
2023/09/01 05:12:40;;;;;;;9.75;8.82;;;10.90;99.90;;;;;;7366886;19;20481;-62
2023/09/01 05:15:07;;;;;;;10.48;8.65;;;10.90;99.90;;;;;;7364422;19;20029;-62
2023/09/01 05:17:53;;;;;;;11.02;8.80;;;10.90;99.90;;;;;;7364302;19;20025;-62
2023/09/01 05:20:23;;;;;;;11.45;8.73;;;11.00;99.90;;;;;;7369076;19;20378;-65
2023/09/01 05:22:49;;;;;;;9.77;8.07;;;11.00;99.90;;;;;;7369048;19;20514;-66
2023/09/01 05:25:15;;;;;;;11.98;8.07;;;11.10;99.90;;;;;;7363842;19;20052;-62
2023/09/01 05:27:44;;;;;;;9.23;8.02;;;11.10;99.90;;;;;;7364185;19;20504;-62
2023/09/01 05:30:12;;;;;;;9.32;7.35;;;11.20;99.90;;;;;;7366607;19;20026;-61
2023/09/01 05:32:39;;;;;;;10.35;8.13;;;11.20;99.90;;;;;;7367801;19;20018;-62
2023/09/01 05:35:06;;;;;;;9.90;8.10;;;11.30;99.90;;;;;;7361586;19;20622;-62
2023/09/01 05:37:32;;;;;;;8.85;7.95;;;11.40;99.90;;;;;;7366552;19;20029;-62
2023/09/01 05:39:58;;;;;;;12.00;7.68;;;11.40;99.90;;;;;;7364063;19;20022;-62
2023/09/01 05:42:25;;;;;;;8.70;7.80;;;11.40;99.90;;;;;;7365493;19;20038;-62
2023/09/01 05:44:52;;;;;;;8.55;7.25;;;11.50;99.90;;;;;;7364391;19;20422;-62
2023/09/01 05:47:18;;;;;;;9.32;8.13;;;11.50;99.90;;;;;;7364779;19;20145;-62
2023/09/01 05:49:44;;;;;;;9.57;7.32;;;11.60;99.90;;;;;;7366941;19;20381;-62
2023/09/01 05:52:11;;;;;;;12.60;8.13;;;11.60;99.90;;;;;;7363174;19;20015;-62
2023/09/01 05:54:37;;;;;;;9.45;7.45;;;11.70;99.90;;;;;;7362605;19;20031;-62
2023/09/01 05:57:04;;;;;;;53.85;43.95;;;11.70;99.90;;;;;;7361625;19;20022;-66
2023/09/01 05:59:30;;;;;;;9.30;7.95;;;11.90;99.90;;;;;;7364484;19;20021;-62
2023/09/01 06:01:56;;;;;;;8.88;7.43;;;11.90;99.90;;;;;;7361967;19;20015;-61
2023/09/01 06:04:43;;;;;;;7.72;6.93;;;12.00;99.90;;;;;;7362773;19;20022;-62
2023/09/01 06:07:10;;;;;;;7.45;6.30;;;12.10;99.90;;;;;;7364919;19;20554;-61
2023/09/01 06:09:36;;;;;;;9.55;6.45;;;12.10;99.90;;;;;;7364263;19;20033;-61
2023/09/01 06:12:02;;;;;;;9.55;7.10;;;12.30;99.90;;;;;;7361892;19;20728;-61
2023/09/01 06:14:31;;;;;;;11.10;6.68;;;12.30;99.90;;;;;;7364814;19;20049;-61
2023/09/01 06:16:58;;;;;;;11.15;6.72;;;12.40;99.90;;;;;;7364755;19;20019;-61
2023/09/01 06:19:24;;;;;;;8.60;6.45;;;12.50;99.90;;;;;;7364713;19;20018;-61
2023/09/01 06:21:51;;;;;;;10.10;7.47;;;12.60;99.90;;;;;;7363448;19;20020;-61
2023/09/01 06:24:18;;;;;;;9.55;7.22;;;12.80;99.90;;;;;;7364128;19;20029;-62
2023/09/01 06:26:44;;;;;;;12.70;7.43;;;13.00;99.90;;;;;;7366592;19;20018;-63
2023/09/01 06:29:12;;;;;;;11.18;6.97;;;13.30;99.90;;;;;;7367130;19;20019;-63
2023/09/01 06:31:38;;;;;;;14.57;8.35;;;13.60;99.90;;;;;;7367303;19;20105;-62
2023/09/01 06:34:04;;;;;;;10.63;8.13;;;13.80;99.90;;;;;;7366183;19;20018;-61
2023/09/01 06:36:31;;;;;;;9.52;7.85;;;14.10;99.90;;;;;;7368031;19;20710;-61
2023/09/01 06:38:57;;;;;;;9.90;7.80;;;14.30;99.90;;;;;;7363977;19;20022;-62
2023/09/01 06:41:23;;;;;;;11.05;9.00;;;14.30;99.90;;;;;;7368049;19;20809;-63
2023/09/01 06:43:49;;;;;;;11.55;10.35;;;14.50;99.90;;;;;;7362844;19;20347;-62
2023/09/01 06:46:15;;;;;;;13.95;10.30;;;14.70;99.90;;;;;;7367757;19;20019;-62
2023/09/01 06:48:43;;;;;;;12.88;11.57;;;14.80;99.90;;;;;;7367783;19;20518;-62
2023/09/01 06:51:09;;;;;;;14.50;11.38;;;14.90;99.90;;;;;;7364609;19;20010;-61
2023/09/01 06:53:35;;;;;;;13.23;11.70;;;15.10;99.90;;;;;;7365788;19;20026;-61
2023/09/01 06:56:02;;;;;;;16.05;12.43;;;15.20;99.90;;;;;;7358618;19;20501;-61
2023/09/01 06:58:48;;;;;;;13.57;11.68;;;15.50;99.90;;;;;;7361022;19;20021;-62
2023/09/01 07:01:15;;;;;;;14.38;11.70;;;15.70;99.90;;;;;;7368341;19;20018;-61
2023/09/01 07:03:45;;;;;;;14.40;11.27;;;15.90;99.90;;;;;;7365356;19;20018;-61
2023/09/01 07:06:31;;;;;;;11.95;10.75;;;16.10;99.90;;;;;;7365285;19;20018;-62
2023/09/01 07:08:57;;;;;;;16.92;13.07;;;16.50;99.90;;;;;;7363455;19;20038;-62
2023/09/01 07:11:24;;;;;;;13.63;11.68;;;16.60;99.90;;;;;;7364412;19;20032;-62
2023/09/01 07:13:50;;;;;;;13.55;11.77;;;16.70;99.90;;;;;;7365073;19;20444;-62
2023/09/01 07:16:17;;;;;;;13.63;11.02;;;16.80;99.90;;;;;;7363355;19;20025;-63
2023/09/01 07:18:43;;;;;;;171.65;154.30;;;16.90;99.90;;;;;;7361725;19;20039;-62
2023/09/01 07:21:10;;;;;;;130.55;116.97;;;17.20;99.90;;;;;;7365358;19;20018;-63
2023/09/01 07:23:37;;;;;;;59.17;52.83;;;17.40;99.90;;;;;;7362332;19;20010;-63
2023/09/01 07:26:03;;;;;;;13.88;12.30;;;17.30;99.90;;;;;;7363021;19;20033;-62
2023/09/01 07:28:30;;;;;;;13.45;11.57;;;17.40;99.90;;;;;;7363625;19;20022;-65
2023/09/01 07:30:56;;;;;;;19.30;17.27;;;17.60;99.90;;;;;;7364595;19;20494;-67
2023/09/01 07:33:22;;;;;;;14.02;11.15;;;17.60;99.90;;;;;;7363301;19;20026;-63
2023/09/01 07:35:50;;;;;;;12.07;10.52;;;17.60;99.90;;;;;;7366938;19;20026;-65
2023/09/01 07:38:17;;;;;;;12.55;11.38;;;17.50;99.90;;;;;;7367476;19;20085;-64
2023/09/01 07:40:44;;;;;;;13.85;11.48;;;17.50;99.90;;;;;;7371623;19;20015;-62
2023/09/01 07:43:11;;;;;;;13.23;11.65;;;17.50;99.90;;;;;;7371195;19;20018;-63
2023/09/01 07:45:40;;;;;;;11.77;10.68;;;17.40;99.90;;;;;;7373982;19;20022;-62
2023/09/01 07:48:06;;;;;;;14.63;12.63;;;17.40;99.90;;;;;;7373279;19;20018;-62
2023/09/01 07:50:33;;;;;;;14.73;12.32;;;17.30;99.90;;;;;;7374152;19;20454;-67
2023/09/01 07:52:59;;;;;;;17.02;14.25;;;17.40;99.90;;;;;;7370607;19;20054;-66
2023/09/01 07:55:28;;;;;;;18.27;13.32;;;17.40;99.90;;;;;;7370911;19;20022;-66
2023/09/01 07:57:59;;;;;;;16.17;12.73;;;17.40;99.90;;;;;;7373505;19;20456;-67
2023/09/01 08:00:45;;;;;;;13.65;12.15;;;17.40;99.90;;;;;;7364687;19;20110;-66
2023/09/01 08:03:12;;;;;;;16.67;14.63;;;17.40;99.90;;;;;;7368563;19;20029;-65
2023/09/01 08:05:38;;;;;;;18.08;15.15;;;17.40;99.90;;;;;;7371597;19;20650;-66
2023/09/01 08:08:06;;;;;;;14.90;13.35;;;17.50;99.90;;;;;;7370525;19;20026;-66
2023/09/01 08:10:32;;;;;;;15.68;14.07;;;17.50;99.90;;;;;;7370550;19;20023;-66
2023/09/01 08:12:58;;;;;;;15.13;13.63;;;17.70;99.90;;;;;;7370283;19;20253;-67
2023/09/01 08:15:25;;;;;;;16.02;13.95;;;17.90;99.90;;;;;;7373549;19;20015;-65
2023/09/01 08:17:53;;;;;;;17.50;14.15;;;18.00;99.90;;;;;;7371669;19;20397;-66
2023/09/01 08:20:19;;;;;;;20.25;15.55;;;18.00;99.90;;;;;;7371669;19;20022;-66
2023/09/01 08:22:46;;;;;;;15.88;14.27;;;18.10;99.90;;;;;;7370174;19;20382;-66
2023/09/01 08:25:13;;;;;;;16.55;14.95;;;18.20;99.90;;;;;;7374195;19;20465;-66
2023/09/01 08:27:39;;;;;;;15.70;14.25;;;18.30;99.90;;;;;;7368412;19;20022;-66
2023/09/01 08:30:26;;;;;;;16.55;14.30;;;18.30;99.90;;;;;;7370895;19;20018;-66
2023/09/01 08:32:53;;;;;;;16.45;14.50;;;18.40;99.90;;;;;;7370443;19;20078;-66
2023/09/01 08:35:19;;;;;;;17.73;14.65;;;18.60;99.90;;;;;;7370449;19;20019;-66
2023/09/01 08:37:45;;;;;;;17.98;16.08;;;18.70;99.90;;;;;;7373453;19;20896;-66
2023/09/01 08:40:11;;;;;;;16.45;14.80;;;19.00;99.90;;;;;;7370854;19;20109;-66
2023/09/01 08:42:45;;;;;;;17.08;14.60;;;19.10;99.90;;;;;;7368797;19;20019;-66
2023/09/01 08:45:14;;;;;;;16.08;14.23;;;19.10;99.90;;;;;;7371323;19;20014;-66
2023/09/01 08:47:47;;;;;;;18.73;14.35;;;19.30;99.90;;;;;;7367616;19;20627;-66
2023/09/01 08:50:15;;;;;;;16.25;13.93;;;19.30;99.90;;;;;;7371322;19;20642;-66
2023/09/01 08:52:44;;;;;;;16.67;13.32;;;19.40;99.90;;;;;;7368595;19;20015;-66
2023/09/01 08:55:15;;;;;;;16.55;13.18;;;19.60;99.90;;;;;;7366980;19;20267;-66
2023/09/01 08:57:42;;;;;;;16.90;13.02;;;19.60;99.90;;;;;;7369378;19;20018;-66
2023/09/01 09:00:09;;;;;;;15.38;11.80;;;19.60;99.90;;;;;;7370501;19;20018;-66
2023/09/01 09:02:46;;;;;;;15.52;13.07;;;19.70;99.90;;;;;;7372142;19;20014;-66
2023/09/01 09:05:13;;;;;;;15.52;12.60;;;19.70;99.90;;;;;;7365384;19;20062;-66
2023/09/01 09:07:40;;;;;;;16.60;12.65;;;19.70;99.90;;;;;;7368790;19;20604;-66
2023/09/01 09:10:08;;;;;;;16.83;12.98;;;19.80;99.90;;;;;;7368678;19;20146;-66
2023/09/01 09:12:41;;;;;;;15.05;13.38;;;19.90;99.90;;;;;;7370517;19;20103;-67
2023/09/01 09:15:27;;;;;;;18.42;15.20;;;20.10;99.90;;;;;;7370638;19;20014;-66
2023/09/01 09:17:54;;;;;;;15.15;12.38;;;20.30;99.90;;;;;;7368591;19;20014;-66
2023/09/01 09:20:22;;;;;;;15.75;13.70;;;20.50;99.90;;;;;;7373418;19;20619;-66
2023/09/01 09:22:55;;;;;;;16.98;13.90;;;20.80;99.90;;;;;;7370820;19;20508;-66
2023/09/01 09:25:30;;;;;;;16.42;13.23;;;21.30;99.90;;;;;;7370869;19;20048;-66
2023/09/01 09:27:58;;;;;;;15.68;12.38;;;21.50;99.90;;;;;;7365994;19;20030;-66
2023/09/01 09:30:26;;;;;;;14.27;12.48;;;21.70;99.90;;;;;;7371667;19;20026;-66
2023/09/01 09:33:06;;;;;;;16.48;14.45;;;22.00;99.90;;;;;;7365979;19;20038;-67
2023/09/01 09:35:34;;;;;;;14.77;13.25;;;21.90;99.90;;;;;;7372896;19;20402;-66
2023/09/01 09:38:01;;;;;;;17.20;15.40;;;22.30;99.90;;;;;;7368257;19;20022;-66
2023/09/01 09:40:28;;;;;;;15.07;13.00;;;22.40;99.90;;;;;;7371803;19;20450;-66
2023/09/01 09:42:59;;;;;;;18.80;14.10;;;22.60;99.90;;;;;;7370209;19;20018;-66
2023/09/01 09:45:34;;;;;;;17.33;11.90;;;22.50;99.90;;;;;;7370074;19;20458;-66
2023/09/01 09:48:07;;;;;;;12.93;11.48;;;22.70;99.90;;;;;;7366617;19;20025;-66
2023/09/01 09:50:34;;;;;;;15.48;11.98;;;22.50;99.90;;;;;;7373438;19;20383;-67
2023/09/01 09:53:05;;;;;;;16.08;11.48;;;22.00;99.90;;;;;;7366990;19;20079;-66
2023/09/01 09:55:41;;;;;;;17.63;11.30;;;21.80;99.90;;;;;;7370184;19;20417;-66
2023/09/01 09:58:08;;;;;;;16.63;13.07;;;22.00;99.90;;;;;;7366573;19;20615;-66
2023/09/01 10:00:45;;;;;;;13.23;7.78;;;22.00;99.90;;;;;;7367793;19;20552;-62
2023/09/01 10:03:11;;;;;;;14.13;9.48;;;21.80;99.90;;;;;;7369771;19;20026;-62
2023/09/01 10:05:38;;;;;;;16.05;9.68;;;21.60;99.90;;;;;;7372214;19;20031;-62
2023/09/01 10:08:06;;;;;;;14.50;9.30;;;21.80;99.90;;;;;;7366275;19;20015;-66
2023/09/01 10:10:35;;;;;;;14.27;8.30;;;21.90;99.90;;;;;;7368974;19;20037;-63
2023/09/01 10:13:06;;;;;;;15.23;7.40;;;21.60;99.90;;;;;;7365217;19;20449;-61
2023/09/01 10:15:37;;;;;;;14.52;8.77;;;21.60;99.90;;;;;;7361653;19;20018;-62
2023/09/01 10:18:05;;;;;;;12.52;9.02;;;21.40;99.90;;;;;;7367203;19;20817;-63
2023/09/01 10:20:41;;;;;;;12.85;9.35;;;21.10;99.90;;;;;;7368066;19;20034;-61
2023/09/01 10:23:10;;;;;;;12.52;8.75;;;21.10;99.90;;;;;;7366394;19;20014;-62
2023/09/01 10:25:36;;;;;;;13.30;8.30;;;21.00;99.90;;;;;;7365007;19;20011;-63
2023/09/01 10:28:23;;;;;;;14.70;9.50;;;20.80;99.90;;;;;;7365194;19;20029;-63
2023/09/01 10:30:49;;;;;;;16.77;9.55;;;20.60;99.90;;;;;;7366665;19;20049;-63
2023/09/01 10:33:24;;;;;;;14.25;10.45;;;20.60;99.90;;;;;;7366089;19;20520;-64
2023/09/01 10:35:53;;;;;;;14.55;10.35;;;20.40;99.90;;;;;;7368505;19;20025;-63
2023/09/01 10:38:22;;;;;;;16.52;11.57;;;20.40;99.90;;;;;;7364579;19;20101;-62
2023/09/01 10:40:55;;;;;;;13.43;9.57;;;20.30;99.90;;;;;;7366869;19;20017;-62
2023/09/01 10:43:41;;;;;;;14.25;9.52;;;20.30;99.90;;;;;;7369471;19;20521;-65
2023/09/01 10:46:16;;;;;;;10.90;7.60;;;20.40;99.90;;;;;;7364072;19;20014;-63
2023/09/01 10:48:53;;;;;;;12.35;7.70;;;20.30;99.90;;;;;;7367729;19;20031;-63
2023/09/01 10:51:21;;;;;;;14.40;8.30;;;20.40;99.90;;;;;;7365012;19;20296;-63
2023/09/01 10:53:52;;;;;;;14.32;9.32;;;20.30;99.90;;;;;;7367846;19;20014;-62
2023/09/01 10:56:23;;;;;;;10.32;8.15;;;20.30;99.90;;;;;;7367281;19;20482;-64
2023/09/01 10:58:57;;;;;;;10.77;7.38;;;20.10;99.90;;;;;;7361740;19;20018;-63
2023/09/01 11:01:23;;;;;;;12.70;7.93;;;20.00;99.90;;;;;;7371496;19;20030;-63
2023/09/01 11:03:50;;;;;;;13.70;8.30;;;20.10;99.90;;;;;;7365833;19;20019;-62
2023/09/01 11:06:16;;;;;;;14.30;7.30;;;20.10;99.90;;;;;;7368661;19;20500;-62
2023/09/01 11:09:01;;;;;;;11.02;7.22;;;20.10;99.90;;;;;;7364751;19;20542;-62
2023/09/01 11:11:28;;;;;;;10.85;7.10;;;20.10;99.90;;;;;;7363861;19;20023;-65
2023/09/01 11:14:00;;;;;;;11.85;7.35;;;20.30;99.90;;;;;;7369409;19;20014;-62
2023/09/01 11:16:26;;;;;;;11.05;7.13;;;20.40;99.90;;;;;;7371140;19;21444;-66
2023/09/01 11:19:02;;;;;;;13.05;7.60;;;20.30;99.90;;;;;;7372773;19;20449;-66
2023/09/01 11:21:29;;;;;;;11.18;8.50;;;20.40;99.90;;;;;;7375824;19;20046;-67
2023/09/01 11:23:59;;;;;;;10.52;6.47;;;20.30;99.90;;;;;;7375066;19;20010;-67
2023/09/01 11:26:25;;;;;;;11.18;6.15;;;20.20;99.90;;;;;;7371674;19;20060;-67
2023/09/01 11:28:52;;;;;;;11.18;6.68;;;20.20;99.90;;;;;;7373092;19;20038;-68
2023/09/01 11:31:18;;;;;;;11.70;7.20;;;20.20;99.90;;;;;;7372230;19;20018;-66
2023/09/01 11:33:52;;;;;;;10.48;7.45;;;20.20;99.90;;;;;;7373537;19;20114;-67
2023/09/01 11:36:46;;;;;;;10.60;6.45;;;20.20;99.90;;;;;;7373076;19;20423;-67
2023/09/01 11:39:13;;;;;;;11.57;7.00;;;20.60;99.90;;;;;;7375578;19;20034;-66
2023/09/01 11:41:40;;;;;;;13.15;7.70;;;20.90;99.90;;;;;;7373866;19;20021;-67
2023/09/01 11:44:07;;;;;;;13.80;7.63;;;21.10;99.90;;;;;;7373800;19;20039;-66
2023/09/01 11:46:37;;;;;;;11.30;6.50;;;21.10;99.90;;;;;;7368961;19;20062;-66
2023/09/01 11:49:05;;;;;;;9.67;5.53;;;21.00;99.90;;;;;;7373758;19;20034;-66
2023/09/01 11:51:39;;;;;;;10.32;6.55;;;21.00;99.90;;;;;;7373568;19;20018;-66
2023/09/01 11:54:06;;;;;;;10.45;6.32;;;21.00;99.90;;;;;;7372580;19;20022;-67
2023/09/01 11:56:33;;;;;;;9.75;6.68;;;21.00;99.90;;;;;;7374766;19;20014;-66
2023/09/01 11:59:00;;;;;;;10.57;6.95;;;20.90;99.90;;;;;;7375053;19;20025;-66
2023/09/01 12:01:38;;;;;;;13.65;7.20;;;20.90;99.90;;;;;;7370204;19;20018;-66
2023/09/01 12:04:06;;;;;;;13.80;7.80;;;20.80;99.90;;;;;;7370874;19;20311;-67
2023/09/01 12:06:39;;;;;;;9.70;7.07;;;20.80;99.90;;;;;;7372355;19;20366;-67
2023/09/01 12:09:16;;;;;;;11.50;6.22;;;20.90;99.90;;;;;;7370982;19;20021;-67
2023/09/01 12:11:57;;;;;;;11.32;5.32;;;21.00;99.90;;;;;;7373462;19;20018;-67
2023/09/01 12:14:27;;;;;;;11.73;6.60;;;21.10;99.90;;;;;;7371312;19;20018;-67
2023/09/01 12:16:54;;;;;;;10.57;6.25;;;21.20;99.90;;;;;;7373917;19;20025;-69
2023/09/01 12:19:25;;;;;;;11.60;6.05;;;21.20;99.90;;;;;;7368130;19;20693;-66
2023/09/01 12:22:11;;;;;;;9.23;4.97;;;21.20;99.90;;;;;;7363433;19;20502;-66
2023/09/01 12:24:38;;;;;;;13.43;5.55;;;21.10;99.90;;;;;;7369323;19;20025;-65
2023/09/01 12:27:05;;;;;;;10.05;5.43;;;21.20;99.90;;;;;;7365747;19;20426;-61
2023/09/01 12:29:32;;;;;;;11.07;5.43;;;21.10;99.90;;;;;;7370183;19;20462;-63
2023/09/01 12:31:58;;;;;;;12.48;6.28;;;21.30;99.90;;;;;;7368027;19;20011;-62
2023/09/01 12:34:24;;;;;;;10.10;5.20;;;21.70;99.90;;;;;;7365984;19;20437;-62
2023/09/01 12:36:51;;;;;;;11.60;5.35;;;21.80;99.90;;;;;;7367475;19;20023;-62
2023/09/01 12:39:38;;;;;;;9.05;5.53;;;21.60;99.90;;;;;;7366169;19;20022;-61
2023/09/01 12:42:05;;;;;;;8.50;5.07;;;21.60;99.90;;;;;;7367847;19;20493;-62
2023/09/01 12:44:31;;;;;;;7.28;4.68;;;21.50;99.90;;;;;;7368472;19;20025;-62
2023/09/01 12:46:58;;;;;;;6.95;4.05;;;21.50;99.90;;;;;;7365816;19;20502;-62
2023/09/01 12:49:24;;;;;;;7.07;4.38;;;21.60;99.90;;;;;;7366743;19;20020;-62